createdAt,value
2022-08-26T00:03:19.300Z,34.67
2022-08-26T00:08:21.753Z,33.01
2022-08-26T00:13:23.908Z,32.91
2022-08-26T00:18:27.454Z,33.36
2022-08-26T00:23:33.350Z,32.32
2022-08-26T00:28:35.916Z,34.87
2022-08-26T00:33:39.665Z,35.58
2022-08-26T00:38:42.538Z,35.32
2022-08-26T00:43:46.339Z,37.15
2022-08-26T00:48:53.888Z,35.29
2022-08-26T00:54:10.730Z,34.47
2022-08-26T00:59:14.391Z,36.54
2022-08-26T01:04:22.898Z,35.90
2022-08-26T01:09:25.709Z,35.40
2022-08-26T01:14:32.634Z,34.82
2022-08-26T01:19:49.049Z,34.51
2022-08-26T01:24:51.393Z,34.83
2022-08-26T01:29:53.865Z,34.48
2022-08-26T01:34:56.070Z,36.25
2022-08-26T01:39:59.031Z,36.58
2022-08-26T01:45:09.941Z,35.79
2022-08-26T01:50:27.833Z,35.61
2022-08-26T01:55:34.194Z,36.08
2022-08-26T02:00:37.102Z,36.12
2022-08-26T02:05:39.294Z,36.29
2022-08-26T02:10:42.414Z,36.81
2022-08-26T02:15:45.803Z,36.03
2022-08-26T02:20:51.657Z,35.65
2022-08-26T02:26:11.248Z,36.93
2022-08-26T02:31:13.463Z,36.50
2022-08-26T02:36:21.238Z,37.06
2022-08-26T02:41:23.393Z,36.15
2022-08-26T02:46:27.919Z,35.57
2022-08-26T02:51:32.209Z,35.22
2022-08-26T02:56:36.051Z,35.28
2022-08-26T03:01:39.234Z,35.64
2022-08-26T03:06:41.655Z,35.24
2022-08-26T03:11:43.842Z,36.38
2022-08-26T03:16:48.533Z,36.62
2022-08-26T03:21:53.028Z,35.88
2022-08-26T03:27:01.972Z,35.17
2022-08-26T03:32:09.868Z,36.00
2022-08-26T03:37:12.783Z,35.61
2022-08-26T03:42:16.038Z,35.73
2022-08-26T03:47:18.363Z,35.61
2022-08-26T03:52:20.499Z,35.57
2022-08-26T03:57:22.663Z,35.66
2022-08-26T04:02:26.129Z,36.19
2022-08-26T04:07:28.345Z,35.92
2022-08-26T04:12:34.223Z,35.79
2022-08-26T04:17:37.164Z,35.34
2022-08-26T04:22:39.681Z,35.18
2022-08-26T04:27:42.806Z,35.70
2022-08-26T04:32:45.006Z,35.94
2022-08-26T04:37:47.982Z,36.14
2022-08-26T04:42:50.535Z,36.11
2022-08-26T04:47:56.494Z,37.28
2022-08-26T04:52:59.110Z,37.32
2022-08-26T04:58:01.691Z,37.71
2022-08-26T05:03:03.982Z,37.45
2022-08-26T05:08:06.484Z,36.96
2022-08-26T05:13:10.127Z,37.98
2022-08-26T05:18:16.470Z,37.05
2022-08-26T05:23:19.011Z,37.20
2022-08-26T05:28:23.077Z,37.04
2022-08-26T05:33:25.466Z,36.51
2022-08-26T05:38:30.150Z,37.24
2022-08-26T05:43:32.660Z,39.52
2022-08-26T05:48:35.343Z,37.01
2022-08-26T05:53:40.199Z,40.15
2022-08-26T05:58:46.341Z,37.57
2022-08-26T06:03:51.883Z,36.53
2022-08-26T06:08:54.261Z,37.73
2022-08-26T06:14:03.496Z,40.60
2022-08-26T06:19:10.524Z,37.64
2022-08-26T06:24:33.037Z,36.82
2022-08-26T06:29:36.709Z,36.55
2022-08-26T06:34:39.870Z,36.67
2022-08-26T06:39:42.086Z,37.81
2022-08-26T06:44:44.817Z,37.34
2022-08-26T06:49:47.330Z,36.65
2022-08-26T06:54:50.652Z,35.27
2022-08-26T06:59:53.206Z,36.18
2022-08-26T07:04:56.847Z,34.02
2022-08-26T07:09:59.879Z,34.15
2022-08-26T07:15:02.448Z,32.78
2022-08-26T07:20:07.815Z,32.78
2022-08-26T07:25:11.530Z,30.61
2022-08-26T07:30:14.731Z,41.40
2022-08-26T07:35:17.311Z,37.08
2022-08-26T07:40:19.642Z,37.39
2022-08-26T07:45:22.568Z,42.23
2022-08-26T07:50:49.417Z,43.95
2022-08-26T07:55:49.720Z,42.42
2022-08-26T08:00:52.426Z,40.68
2022-08-26T08:05:59.757Z,37.41
2022-08-26T08:11:06.745Z,43.39
2022-08-26T08:16:12.824Z,43.90
2022-08-26T08:21:21.226Z,47.19
2022-08-26T08:26:26.702Z,48.41
2022-08-26T08:36:54.490Z,46.59
2022-08-26T08:42:11.919Z,43.74
2022-08-26T08:47:36.106Z,44.18
2022-08-26T08:52:42.659Z,43.48
2022-08-26T08:58:02.485Z,40.22
2022-08-26T09:03:30.682Z,40.13
2022-08-26T09:08:37.090Z,42.57
2022-08-26T09:13:48.747Z,45.33
2022-08-26T09:19:04.766Z,46.19
2022-08-26T09:24:07.552Z,49.56
2022-08-26T09:29:23.566Z,48.70
2022-08-26T09:34:28.193Z,44.98
2022-08-26T09:39:50.239Z,44.29
2022-08-26T09:45:06.281Z,43.76
2022-08-26T09:50:29.396Z,45.07
2022-08-26T09:55:31.891Z,45.38
2022-08-26T10:00:41.340Z,44.06
2022-08-26T10:05:59.095Z,45.49
2022-08-26T10:11:07.187Z,45.63
2022-08-26T10:16:30.383Z,46.55
2022-08-26T10:21:43.408Z,45.27
2022-08-26T10:27:07.878Z,45.47
2022-08-26T10:32:31.362Z,46.53
2022-08-26T10:37:38.652Z,45.97
2022-08-26T10:42:46.641Z,46.20
2022-08-26T10:48:02.335Z,43.40
2022-08-26T10:53:24.928Z,44.80
2022-08-26T10:58:32.257Z,45.54
2022-08-26T11:03:36.536Z,45.24
2022-08-26T11:08:56.883Z,47.02
2022-08-26T11:14:01.685Z,55.75
2022-08-26T11:19:04.856Z,58.79
2022-08-26T11:24:07.069Z,56.33
2022-08-26T11:29:12.869Z,56.27
2022-08-26T11:34:15.630Z,50.33
2022-08-26T11:39:20.676Z,46.60
2022-08-26T11:44:26.494Z,47.85
2022-08-26T11:49:31.853Z,48.14
2022-08-26T11:54:36.304Z,49.02
2022-08-26T11:59:40.928Z,43.13
2022-08-26T12:04:48.635Z,45.17
2022-08-26T12:09:58.744Z,44.48
2022-08-26T12:15:11.595Z,50.04
2022-08-26T12:20:48.525Z,50.31
2022-08-26T12:25:54.343Z,51.63
2022-08-26T12:31:29.239Z,49.17
2022-08-26T12:36:48.782Z,44.11
2022-08-26T12:42:02.999Z,47.80
2022-08-26T12:47:23.387Z,45.21
2022-08-26T12:52:59.675Z,43.93
2022-08-26T12:58:17.002Z,42.67
2022-08-26T13:03:34.364Z,40.60
2022-08-26T13:08:40.514Z,42.22
2022-08-26T13:13:42.949Z,43.57
2022-08-26T13:18:47.012Z,43.36
2022-08-26T13:23:49.969Z,48.58
2022-08-26T13:29:01.976Z,44.15
2022-08-26T13:34:04.721Z,46.36
2022-08-26T13:39:07.280Z,42.73
2022-08-26T13:44:10.477Z,42.90
2022-08-26T13:49:12.882Z,40.96
2022-08-26T13:54:15.074Z,41.07
2022-08-26T13:59:17.524Z,44.00
2022-08-26T14:04:26.963Z,40.15
2022-08-26T14:09:29.959Z,37.43
2022-08-26T14:14:32.098Z,39.40
2022-08-26T14:19:34.345Z,48.37
2022-08-26T14:24:36.581Z,42.54
2022-08-26T14:29:39.414Z,43.65
2022-08-26T14:34:42.278Z,41.17
2022-08-26T14:39:45.550Z,39.80
2022-08-26T14:44:53.737Z,40.23
2022-08-26T14:49:57.068Z,43.81
2022-08-26T14:54:59.204Z,40.21
2022-08-26T15:00:01.354Z,38.79
2022-08-26T15:05:05.205Z,39.52
2022-08-26T15:10:11.402Z,39.23
2022-08-26T15:15:16.339Z,40.36
2022-08-26T15:20:18.521Z,42.67
2022-08-26T15:25:21.001Z,41.04
2022-08-26T15:30:23.187Z,38.32
2022-08-26T15:35:25.371Z,36.65
2022-08-26T15:40:27.561Z,39.85
2022-08-26T15:45:32.043Z,37.33
2022-08-26T15:50:34.861Z,40.33
2022-08-26T15:55:36.967Z,36.45
2022-08-26T16:00:39.542Z,35.88
2022-08-26T16:05:46.318Z,34.69
2022-08-26T16:10:50.623Z,37.43
2022-08-26T16:15:53.839Z,38.09
2022-08-26T16:21:13.308Z,39.58
2022-08-26T16:26:19.117Z,35.38
2022-08-26T16:31:22.080Z,42.22
2022-08-26T16:36:24.410Z,41.79
2022-08-26T16:41:29.073Z,36.29
2022-08-26T16:46:32.154Z,32.85
2022-08-26T16:51:38.086Z,34.44
2022-08-26T16:56:40.705Z,38.33
2022-08-26T17:01:43.058Z,36.96
2022-08-26T17:06:45.810Z,35.39
2022-08-26T17:11:48.005Z,46.39
2022-08-26T17:16:53.621Z,43.67
2022-08-26T17:21:55.748Z,39.97
2022-08-26T17:26:57.905Z,38.61
2022-08-26T17:32:00.398Z,37.10
2022-08-26T17:37:02.578Z,37.23
2022-08-26T17:42:05.114Z,39.84
2022-08-26T17:47:07.334Z,39.32
2022-08-26T17:52:11.550Z,38.45
2022-08-26T17:57:14.273Z,37.04
2022-08-26T18:02:16.829Z,36.19
2022-08-26T18:07:19.743Z,36.65
2022-08-26T18:12:23.174Z,39.78
2022-08-26T18:17:30.179Z,39.58
2022-08-26T18:22:32.314Z,38.71
2022-08-26T18:27:37.418Z,38.83
2022-08-26T18:32:39.784Z,39.00
2022-08-26T18:37:42.948Z,39.45
2022-08-26T18:42:45.135Z,38.95
2022-08-26T18:47:52.106Z,39.38
2022-08-26T18:52:54.764Z,38.13
2022-08-26T18:57:57.260Z,39.99
2022-08-26T19:02:59.771Z,41.27
2022-08-26T19:08:03.479Z,39.90
2022-08-26T19:13:09.393Z,40.32
2022-08-26T19:18:17.730Z,43.07
2022-08-26T19:23:31.436Z,43.48
2022-08-26T19:28:35.276Z,41.60
2022-08-26T19:33:43.117Z,41.37
2022-08-26T19:38:46.108Z,41.58
2022-08-26T19:43:48.419Z,41.74
2022-08-26T19:48:54.116Z,41.49
2022-08-26T19:54:01.666Z,41.20
2022-08-26T19:59:03.825Z,41.17
2022-08-26T20:04:06.406Z,41.08
2022-08-26T20:09:08.825Z,40.84
2022-08-26T20:14:11.028Z,40.74
2022-08-26T20:19:36.835Z,39.96
2022-08-26T20:24:39.622Z,39.22
2022-08-26T20:29:43.109Z,38.86
2022-08-26T20:34:45.255Z,38.34
2022-08-26T20:39:48.843Z,38.27
2022-08-26T20:44:54.706Z,37.67
2022-08-26T20:49:57.285Z,38.11
2022-08-26T20:54:59.550Z,38.70
2022-08-26T21:00:01.770Z,38.28
2022-08-26T21:05:05.062Z,38.24
2022-08-26T21:10:07.576Z,38.27
2022-08-26T21:15:10.700Z,38.28
2022-08-26T21:20:12.822Z,38.66
2022-08-26T21:25:14.997Z,39.56
2022-08-26T21:30:17.284Z,39.65
2022-08-26T21:35:19.626Z,38.82
2022-08-26T21:40:22.061Z,38.46
2022-08-26T21:45:24.310Z,38.48
2022-08-26T21:50:29.544Z,40.64
2022-08-26T21:55:35.833Z,42.81
2022-08-26T22:00:38.494Z,41.34
2022-08-26T22:05:51.380Z,40.33
2022-08-26T22:10:55.058Z,42.00
2022-08-26T22:15:59.069Z,42.91
2022-08-26T22:21:06.022Z,43.02
2022-08-26T22:26:10.739Z,42.43
2022-08-26T22:31:14.571Z,41.76
2022-08-26T22:36:20.638Z,40.80
2022-08-26T22:41:23.494Z,42.98
2022-08-26T22:46:27.097Z,41.21
2022-08-26T22:51:29.904Z,40.76
2022-08-26T22:56:32.262Z,39.81
2022-08-26T23:01:37.322Z,40.16
2022-08-26T23:06:42.701Z,39.90
2022-08-26T23:11:46.436Z,40.66
2022-08-26T23:16:48.721Z,40.17
2022-08-26T23:21:51.319Z,41.02
2022-08-26T23:26:54.136Z,40.06
2022-08-26T23:31:56.435Z,40.14
2022-08-26T23:37:00.190Z,40.32
2022-08-26T23:42:03.793Z,40.84
2022-08-26T23:47:06.555Z,40.11
2022-08-26T23:52:29.865Z,40.04
2022-08-26T23:57:33.265Z,40.23
